Time;durP1;ratioP1;P1;durP2;ratioP2;P2;SDS_P1;SDS_P2;PMS_P1;PMS_P2;Temp;Humidity;BMP_temperature;BMP_pressure;BME280_temperature;BME280_humidity;BME280_pressure;Samples;Min_cycle;Max_cycle;Signal;HPM_P1;HPM_P2
2023/04/20 00:02:01;;;;;;;;;8.75;8.50;;;;;13.50;57.67;98708.84;5013726;28;45598;-77
2023/04/20 00:04:28;;;;;;;;;11.25;10.25;;;;;13.48;58.01;98701.94;5028671;28;45609;-78
2023/04/20 00:06:55;;;;;;;;;8.25;8.00;;;;;13.47;57.87;98709.03;5013400;28;45637;-77
2023/04/20 00:09:21;;;;;;;;;10.75;9.00;;;;;13.45;58.11;98704.75;5013577;28;45402;-77
2023/04/20 00:11:47;;;;;;;;;9.50;9.50;;;;;13.43;58.29;98707.50;5013520;28;45460;-77
2023/04/20 00:14:13;;;;;;;;;12.00;10.50;;;;;13.39;58.07;98694.56;5012675;28;45431;-77
2023/04/20 00:16:38;;;;;;;;;9.75;9.00;;;;;13.37;58.60;98696.44;5013322;28;45464;-77
2023/04/20 00:19:04;;;;;;;;;9.50;9.25;;;;;13.29;58.58;98688.91;5013368;28;45497;-77
2023/04/20 00:21:29;;;;;;;;;10.00;8.25;;;;;13.27;59.07;98688.16;5012978;28;45477;-77
2023/04/20 00:23:54;;;;;;;;;9.25;8.25;;;;;13.24;59.20;98686.53;5013505;28;45611;-77
2023/04/20 00:26:20;;;;;;;;;12.50;10.50;;;;;13.24;59.25;98685.69;5013188;28;46234;-77
2023/04/20 00:28:45;;;;;;;;;13.75;11.50;;;;;13.22;59.47;98684.94;5013242;28;45501;-76
2023/04/20 00:31:11;;;;;;;;;7.00;7.00;;;;;13.20;59.15;98682.38;5016842;28;45547;-77
2023/04/20 00:33:36;;;;;;;;;10.25;10.25;;;;;13.18;59.14;98680.75;5016861;28;45456;-77
2023/04/20 00:36:02;;;;;;;;;9.00;8.00;;;;;13.16;59.28;98674.69;5016673;28;45649;-77
2023/04/20 00:38:27;;;;;;;;;8.75;8.75;;;;;13.14;59.13;98674.75;5016770;28;45329;-77
2023/04/20 00:40:56;;;;;;;;;9.00;7.00;;;;;13.14;59.34;98669.44;5016769;28;45416;-77
2023/04/20 00:43:21;;;;;;;;;11.75;9.50;;;;;13.11;59.37;98666.97;5031043;28;45610;-77
2023/04/20 00:45:47;;;;;;;;;12.25;9.50;;;;;13.10;59.27;98659.13;5016716;28;46099;-77
2023/04/20 00:48:13;;;;;;;;;12.00;11.00;;;;;13.07;59.24;98659.31;5016531;28;45508;-77
2023/04/20 00:50:39;;;;;;;;;10.25;10.25;;;;;13.03;59.06;98660.44;5031882;28;45473;-77
2023/04/20 00:53:06;;;;;;;;;8.75;8.75;;;;;13.00;59.17;98657.97;5031250;28;45440;-77
2023/04/20 00:55:32;;;;;;;;;12.50;12.50;;;;;12.95;59.31;98658.22;5015431;28;46163;-77
2023/04/20 00:57:57;;;;;;;;;13.00;13.00;;;;;12.90;59.11;98658.47;5015551;28;45387;-77
2023/04/20 01:00:24;;;;;;;;;9.25;9.25;;;;;12.88;59.36;98657.72;5031356;28;45467;-77
2023/04/20 01:02:49;;;;;;;;;10.00;10.00;;;;;12.86;59.82;98651.66;5015537;28;45493;-77
2023/04/20 01:05:15;;;;;;;;;10.50;10.50;;;;;12.85;59.47;98651.75;5015262;28;45691;-77
2023/04/20 01:07:40;;;;;;;;;8.25;8.25;;;;;12.83;59.75;98649.19;5011092;28;45333;-77
2023/04/20 01:10:06;;;;;;;;;10.25;10.25;;;;;12.82;59.60;98651.91;5016211;28;45414;-77
2023/04/20 01:12:32;;;;;;;;;11.50;11.50;;;;;12.80;59.69;98648.50;5001205;28;45508;-77
2023/04/20 01:14:58;;;;;;;;;12.50;9.00;;;;;12.78;59.83;98645.09;5031148;28;48263;-77
2023/04/20 01:17:23;;;;;;;;;11.50;11.00;;;;;12.75;60.16;98646.09;5016277;28;45473;-77
2023/04/20 01:19:49;;;;;;;;;9.75;8.25;;;;;12.75;59.99;98645.25;5016106;28;45525;-77
2023/04/20 01:22:20;;;;;;;;;9.00;8.00;;;;;12.73;60.56;98652.44;5015696;28;45444;-77
2023/04/20 01:24:46;;;;;;;;;12.00;9.00;;;;;12.70;60.41;98648.19;5015846;28;46330;-77
2023/04/20 01:27:15;;;;;;;;;9.50;9.00;;;;;12.67;60.76;98642.22;5013545;28;45450;-77
2023/04/20 01:29:42;;;;;;;;;7.25;7.25;;;;;12.64;60.85;98634.44;5016134;28;45632;-77
2023/04/20 01:32:08;;;;;;;;;10.50;10.50;;;;;12.62;61.04;98633.66;5016307;28;45389;-77
2023/04/20 01:34:33;;;;;;;;;10.50;9.25;;;;;12.59;60.87;98639.97;5015845;28;46526;-77
2023/04/20 01:36:59;;;;;;;;;9.75;9.25;;;;;12.56;60.96;98635.75;5015300;28;45420;-77
2023/04/20 01:39:25;;;;;;;;;9.75;9.00;;;;;12.56;61.04;98629.59;5015720;28;45461;-77
2023/04/20 01:41:50;;;;;;;;;7.75;7.75;;;;;12.54;61.22;98632.31;5016001;28;45340;-77
2023/04/20 01:44:16;;;;;;;;;9.25;8.50;;;;;12.52;61.22;98625.41;5015270;28;46385;-77
2023/04/20 01:46:41;;;;;;;;;8.75;8.75;;;;;12.49;61.28;98623.78;5015739;28;45363;-77
2023/04/20 01:49:07;;;;;;;;;9.00;9.00;;;;;12.47;61.26;98625.66;5015202;28;45996;-77
2023/04/20 01:51:34;;;;;;;;;10.00;10.00;;;;;12.43;61.46;98632.03;5013843;28;45442;-77
2023/04/20 01:54:01;;;;;;;;;11.25;8.50;;;;;12.40;61.87;98632.22;5029232;28;48283;-77
2023/04/20 01:56:26;;;;;;;;;9.00;9.00;;;;;12.35;61.79;98633.44;5030774;28;45470;-77
2023/04/20 01:58:52;;;;;;;;;7.00;7.00;;;;;12.32;61.96;98628.31;5015549;28;46154;-76
2023/04/20 02:01:17;;;;;;;;;7.00;7.00;;;;;12.29;62.18;98637.25;5015463;28;45507;-77
2023/04/20 02:03:43;;;;;;;;;10.00;9.00;;;;;12.24;62.52;98624.28;5014866;28;46265;-77
2023/04/20 02:06:08;;;;;;;;;9.50;7.25;;;;;12.22;62.31;98623.53;5015188;28;45432;-77
2023/04/20 02:08:33;;;;;;;;;9.00;9.00;;;;;12.20;62.68;98628.03;5030754;28;45415;-77
2023/04/20 02:10:59;;;;;;;;;11.25;9.00;;;;;12.18;62.88;98626.41;5015567;28;45401;-77
2023/04/20 02:13:25;;;;;;;;;12.25;10.25;;;;;12.14;62.97;98623.09;5013405;28;48453;-77
2023/04/20 02:15:50;;;;;;;;;10.50;9.00;;;;;12.12;63.31;98618.81;5030320;28;45502;-77
2023/04/20 02:18:16;;;;;;;;;9.00;9.00;;;;;12.09;63.29;98617.19;5014913;28;45706;-77
2023/04/20 02:20:43;;;;;;;;;10.00;10.00;;;;;12.09;63.34;98616.34;5015105;28;45417;-77
2023/04/20 02:23:08;;;;;;;;;14.50;12.75;;;;;12.09;63.16;98626.91;5014973;28;46214;-76
2023/04/20 02:25:33;;;;;;;;;10.50;9.00;;;;;12.07;63.33;98623.47;5014589;28;45368;-77
2023/04/20 02:27:59;;;;;;;;;10.00;8.50;;;;;12.07;63.49;98623.47;5014765;28;45878;-77
2023/04/20 02:30:25;;;;;;;;;9.25;8.25;;;;;12.02;63.42;98615.81;5030392;28;45568;-77
2023/04/20 02:32:50;;;;;;;;;10.50;8.25;;;;;12.01;63.43;98611.47;5015065;28;46062;-77
2023/04/20 02:35:16;;;;;;;;;7.75;7.75;;;;;11.99;63.88;98608.06;5015075;28;45462;-77
2023/04/20 02:37:42;;;;;;;;;9.75;8.50;;;;;11.97;63.89;98614.34;5030279;28;45472;-77
2023/04/20 02:40:08;;;;;;;;;9.00;9.00;;;;;11.93;64.03;98613.66;5014760;28;45589;-77
2023/04/20 02:42:34;;;;;;;;;8.75;8.75;;;;;11.92;64.06;98611.97;5014509;28;46255;-77
2023/04/20 02:44:59;;;;;;;;;7.75;7.75;;;;;11.90;64.35;98615.63;5014659;28;45369;-77
2023/04/20 02:47:25;;;;;;;;;9.50;9.50;;;;;11.87;64.18;98612.22;5014772;28;45321;-77
2023/04/20 02:49:50;;;;;;;;;10.00;10.00;;;;;11.87;64.15;98612.22;5029953;28;45686;-77
2023/04/20 02:52:15;;;;;;;;;12.25;9.75;;;;;11.87;64.22;98614.88;5012553;28;45575;-77
2023/04/20 02:54:41;;;;;;;;;15.25;13.50;;;;;11.87;64.31;98616.66;5014519;28;45424;-77
2023/04/20 02:57:06;;;;;;;;;9.75;9.00;;;;;11.87;64.35;98614.88;5014721;28;45669;-77
2023/04/20 02:59:31;;;;;;;;;11.75;8.75;;;;;11.89;64.75;98617.44;5014327;28;45510;-77
2023/04/20 03:01:57;;;;;;;;;10.75;8.75;;;;;11.90;64.48;98608.53;5029184;28;48313;-77
2023/04/20 03:04:22;;;;;;;;;8.75;8.00;;;;;11.90;64.43;98608.53;5000788;28;45445;-77
2023/04/20 03:06:50;;;;;;;;;9.25;9.00;;;;;11.89;64.03;98606.88;5014084;28;45527;-77
2023/04/20 03:09:17;;;;;;;;;13.50;12.00;;;;;11.88;64.35;98608.66;5013638;28;45430;-77
2023/04/20 03:11:42;;;;;;;;;8.75;8.75;;;;;11.89;64.62;98609.50;5029174;28;46643;-77
2023/04/20 03:14:08;;;;;;;;;10.25;9.25;;;;;11.90;64.36;98610.34;5014225;28;45324;-77
2023/04/20 03:16:34;;;;;;;;;13.50;10.75;;;;;11.89;64.57;98606.88;5029407;28;45484;-77
2023/04/20 03:18:59;;;;;;;;;15.00;13.00;;;;;11.88;64.06;98602.50;5014028;28;45381;-77
2023/04/20 03:21:24;;;;;;;;;14.50;14.00;;;;;11.88;64.12;98607.78;5013869;28;45619;-78
2023/04/20 03:23:50;;;;;;;;;9.50;8.75;;;;;11.87;64.00;98598.16;5029035;28;45388;-77
2023/04/20 03:26:16;;;;;;;;;14.00;12.75;;;;;11.87;63.95;98609.59;5029529;28;45428;-77
2023/04/20 03:28:42;;;;;;;;;13.50;10.75;;;;;11.87;63.97;98604.31;5013677;28;45445;-77
2023/04/20 03:31:07;;;;;;;;;12.25;9.75;;;;;11.88;64.30;98602.50;5013631;28;45536;-77
2023/04/20 03:33:32;;;;;;;;;10.00;10.00;;;;;11.89;64.33;98604.22;5013783;28;45456;-77
2023/04/20 03:35:58;;;;;;;;;8.50;8.00;;;;;11.89;64.41;98596.28;5013867;28;45400;-77
2023/04/20 03:38:23;;;;;;;;;11.75;10.50;;;;;11.93;64.74;98602.25;5013764;28;45531;-77
2023/04/20 03:40:48;;;;;;;;;11.75;11.75;;;;;11.94;64.61;98599.53;5013623;28;46522;-77
2023/04/20 03:43:14;;;;;;;;;10.25;9.00;;;;;11.95;64.65;98603.03;5013141;28;45450;-77
2023/04/20 03:45:40;;;;;;;;;11.75;11.75;;;;;11.94;65.09;98606.59;5013857;28;45402;-77
2023/04/20 03:48:06;;;;;;;;;10.75;10.25;;;;;11.91;65.20;98598.81;5013755;28;45565;-77
2023/04/20 03:50:31;;;;;;;;;10.75;10.50;;;;;11.88;65.20;98602.50;5013595;28;46133;-77
2023/04/20 03:52:56;;;;;;;;;15.25;14.75;;;;;11.85;65.00;98600.88;5013389;28;45439;-77
2023/04/20 03:55:22;;;;;;;;;14.50;12.25;;;;;11.85;64.48;98603.53;5013816;28;45627;-77
2023/04/20 03:57:47;;;;;;;;;10.75;10.00;;;;;11.85;64.15;98602.66;5013203;28;45369;-77
2023/04/20 04:00:13;;;;;;;;;15.50;12.25;;;;;11.84;64.23;98590.41;5013790;28;45334;-77
2023/04/20 04:02:38;;;;;;;;;12.75;12.75;;;;;11.87;64.35;98598.16;5029052;28;45366;-77
2023/04/20 04:05:04;;;;;;;;;16.00;14.75;;;;;11.88;64.45;98595.44;5016381;28;45382;-77
2023/04/20 04:07:30;;;;;;;;;11.75;11.25;;;;;11.90;64.48;98586.59;5016806;28;45368;-77
2023/04/20 04:09:55;;;;;;;;;13.75;11.75;;;;;11.91;64.46;98590.91;5016752;28;45330;-77
2023/04/20 04:12:20;;;;;;;;;10.00;10.00;;;;;11.91;64.33;98589.13;5016401;28;45389;-77
2023/04/20 04:14:46;;;;;;;;;12.00;9.00;;;;;11.91;64.49;98594.41;5017331;28;45289;-77
2023/04/20 04:17:13;;;;;;;;;13.00;10.75;;;;;11.90;64.76;98591.88;5016696;28;45491;-77
2023/04/20 04:19:38;;;;;;;;;16.00;14.75;;;;;11.88;64.96;98587.53;5016680;28;45528;-76
2023/04/20 04:22:04;;;;;;;;;16.25;13.25;;;;;11.89;64.87;98591.00;5031803;28;45456;-77
2023/04/20 04:24:30;;;;;;;;;15.00;13.75;;;;;11.88;64.72;98584.88;5032392;28;45382;-77
2023/04/20 04:26:57;;;;;;;;;15.50;12.50;;;;;11.86;64.73;98577.97;5015861;28;45338;-77
2023/04/20 04:29:24;;;;;;;;;14.50;12.25;;;;;11.87;64.45;98584.97;5031892;28;46974;-77
2023/04/20 04:31:50;;;;;;;;;15.50;13.50;;;;;11.88;64.81;98579.59;5031798;28;45725;-77
2023/04/20 04:34:17;;;;;;;;;16.00;16.00;;;;;11.86;64.71;98585.88;5015444;28;45354;-77
2023/04/20 04:36:42;;;;;;;;;12.75;11.75;;;;;11.87;64.89;98587.59;5016611;28;45593;-77
2023/04/20 04:39:08;;;;;;;;;9.25;8.00;;;;;11.88;64.94;98579.59;5016634;28;46284;-77
2023/04/20 04:41:33;;;;;;;;;11.75;10.50;;;;;11.90;64.85;98581.31;5031853;28;45453;-77
2023/04/20 04:43:59;;;;;;;;;9.00;9.00;;;;;11.92;64.40;98582.91;5014763;28;45516;-77
2023/04/20 04:46:26;;;;;;;;;11.25;8.75;;;;;11.93;64.00;98581.09;5016441;28;45434;-77
2023/04/20 04:48:51;;;;;;;;;12.25;10.00;;;;;11.94;63.58;98583.69;5016208;28;45463;-77
2023/04/20 04:51:17;;;;;;;;;16.00;11.50;;;;;11.95;63.69;98581.88;5014765;28;45393;-77
2023/04/20 04:53:45;;;;;;;;;11.00;11.00;;;;;11.94;63.64;98577.53;5031289;28;45416;-77
2023/04/20 04:56:12;;;;;;;;;11.75;11.75;;;;;11.96;63.26;98586.22;5015246;28;45567;-77
2023/04/20 04:58:37;;;;;;;;;9.25;8.50;;;;;11.98;63.20;98584.38;5015962;28;46070;-77
2023/04/20 05:01:03;;;;;;;;;9.50;9.50;;;;;11.98;63.04;98582.56;5015547;28;45417;-77
2023/04/20 05:03:28;;;;;;;;;12.00;11.00;;;;;12.01;63.21;98586.84;5015974;28;45405;-76
2023/04/20 05:05:54;;;;;;;;;10.25;10.25;;;;;12.03;62.95;98582.34;5015803;28;45499;-77
2023/04/20 05:08:23;;;;;;;;;14.50;11.25;;;;;12.07;63.00;98591.78;5016433;28;46023;-77
2023/04/20 05:10:48;;;;;;;;;11.50;11.00;;;;;12.08;62.69;98585.56;5015850;28;45391;-76
2023/04/20 05:13:13;;;;;;;;;17.00;15.00;;;;;12.07;63.11;98578.56;5015802;28;45356;-77
2023/04/20 05:15:39;;;;;;;;;5.75;4.75;;;;;12.05;62.67;98583.97;5030422;28;45366;-78
2023/04/20 05:18:04;;;;;;;;;14.00;10.75;;;;;12.08;63.05;98582.91;5015578;28;46325;-63
2023/04/20 05:20:30;;;;;;;;;11.50;10.25;;;;;12.14;63.06;98585.22;5013971;28;45426;-62
2023/04/20 05:22:55;;;;;;;;;14.25;12.75;;;;;12.16;63.58;98584.22;5007193;28;45566;-62
2023/04/20 05:25:21;;;;;;;;;13.25;11.75;;;;;12.20;63.09;98598.13;5014394;28;45637;-63
2023/04/20 05:27:46;;;;;;;;;17.25;14.00;;;;;12.21;63.89;98587.47;5010084;28;46226;-62
2023/04/20 05:30:12;;;;;;;;;14.75;14.75;;;;;12.26;64.28;98587.19;5006456;28;45405;-63
2023/04/20 05:32:37;;;;;;;;;17.00;14.50;;;;;12.31;64.40;98590.44;5011395;28;45522;-63
2023/04/20 05:35:03;;;;;;;;;15.25;15.25;;;;;12.34;64.46;98589.41;5014809;28;45499;-63
2023/04/20 05:37:28;;;;;;;;;15.75;15.75;;;;;12.34;64.43;98592.91;5013870;28;45408;-63
2023/04/20 05:39:53;;;;;;;;;13.75;13.75;;;;;12.29;63.92;98600.25;5013588;28;45451;-63
2023/04/20 05:42:19;;;;;;;;;9.00;7.50;;;;;12.20;64.00;98606.91;5014401;28;45824;-63
2023/04/20 05:44:44;;;;;;;;;14.75;13.00;;;;;12.12;63.96;98601.16;5014562;28;45476;-63
2023/04/20 05:47:10;;;;;;;;;12.75;12.75;;;;;12.06;64.06;98609.44;5029370;28;45759;-62
2023/04/20 05:49:35;;;;;;;;;14.25;12.00;;;;;11.99;64.29;98607.22;5006879;28;45583;-63
2023/04/20 05:52:02;;;;;;;;;16.25;15.25;;;;;11.95;64.50;98611.78;5014704;28;45473;-63
2023/04/20 05:54:27;;;;;;;;;14.75;14.50;;;;;11.91;64.11;98610.25;5014380;28;45416;-62
2023/04/20 05:56:53;;;;;;;;;15.25;12.75;;;;;11.87;64.52;98617.50;5014358;28;45863;-63
2023/04/20 05:59:19;;;;;;;;;12.75;11.25;;;;;11.84;64.47;98611.53;5014291;28;45415;-63
2023/04/20 06:01:45;;;;;;;;;16.75;15.00;;;;;11.79;64.99;98626.75;5014582;28;45297;-62
2023/04/20 06:04:10;;;;;;;;;17.50;15.00;;;;;11.73;65.28;98627.06;5014636;28;45362;-62
2023/04/20 06:06:36;;;;;;;;;14.75;13.25;;;;;11.71;64.95;98632.44;5014412;28;45627;-62
2023/04/20 06:09:01;;;;;;;;;14.50;13.75;;;;;11.67;66.06;98630.03;5013789;28;45504;-62
2023/04/20 06:11:27;;;;;;;;;11.75;11.50;;;;;11.61;65.63;98630.31;5014117;28;45484;-62
2023/04/20 06:13:52;;;;;;;;;13.75;13.75;;;;;11.58;65.61;98636.63;5013687;28;45399;-62
2023/04/20 06:16:17;;;;;;;;;18.00;15.75;;;;;11.60;65.27;98640.03;5014467;28;45527;-62
2023/04/20 06:18:43;;;;;;;;;14.50;13.25;;;;;11.62;65.36;98635.53;5013810;28;45493;-62
2023/04/20 06:21:10;;;;;;;;;14.50;11.75;;;;;11.65;65.66;98637.16;5013838;28;45793;-62
2023/04/20 06:23:36;;;;;;;;;13.50;12.75;;;;;11.66;65.57;98637.09;5012321;28;45473;-62
2023/04/20 06:26:02;;;;;;;;;15.00;14.00;;;;;11.65;65.19;98639.81;5013473;28;45388;-62
2023/04/20 06:28:28;;;;;;;;;13.25;12.75;;;;;11.63;65.75;98645.16;5013074;28;45431;-62
2023/04/20 06:30:53;;;;;;;;;13.75;12.25;;;;;11.66;65.48;98644.16;5013494;28;45408;-62
2023/04/20 06:33:18;;;;;;;;;12.75;12.75;;;;;11.67;65.83;98643.22;5013211;28;45501;-62
2023/04/20 06:35:44;;;;;;;;;13.00;11.25;;;;;11.71;66.41;98642.13;5013353;28;45429;-62
2023/04/20 06:38:09;;;;;;;;;15.50;14.50;;;;;11.75;65.90;98635.72;5028531;28;45351;-62
2023/04/20 06:40:34;;;;;;;;;13.50;13.50;;;;;11.83;66.01;98639.72;5013502;28;45393;-62
2023/04/20 06:43:00;;;;;;;;;14.25;12.25;;;;;11.92;65.94;98643.66;5012661;28;45564;-62
2023/04/20 06:45:25;;;;;;;;;14.25;14.25;;;;;12.01;65.99;98642.31;5013594;28;46290;-62
2023/04/20 06:47:51;;;;;;;;;16.00;15.67;;;;;12.07;66.22;98642.84;5013403;28;45293;-62
2023/04/20 06:50:16;;;;;;;;;15.50;14.50;;;;;12.16;66.21;98646.78;5029125;28;45429;-62
2023/04/20 06:52:42;;;;;;;;;20.00;16.25;;;;;12.23;66.08;98643.72;5013117;28;45377;-62
2023/04/20 06:55:09;;;;;;;;;13.75;13.00;;;;;12.30;65.92;98638.09;5011655;28;46288;-62
2023/04/20 06:57:36;;;;;;;;;6.50;6.50;;;;;12.40;66.00;98647.25;5012747;28;45461;-62
2023/04/20 07:00:01;;;;;;;;;15.50;13.75;;;;;12.52;66.35;98641.28;5013943;28;45467;-62
2023/04/20 07:02:26;;;;;;;;;14.25;13.25;;;;;12.62;66.17;98628.38;5029056;28;45447;-63
2023/04/20 07:04:52;;;;;;;;;18.33;18.33;;;;;12.73;66.59;98631.28;5013704;28;45743;-62
2023/04/20 07:07:17;;;;;;;;;18.00;17.00;;;;;12.81;66.33;98623.75;5013594;28;45432;-62
2023/04/20 07:09:42;;;;;;;;;15.75;15.25;;;;;12.89;66.64;98625.03;5014223;28;45756;-62
2023/04/20 07:12:10;;;;;;;;;18.00;16.00;;;;;12.99;66.86;98627.16;5012029;28;45904;-62
2023/04/20 07:14:35;;;;;;;;;17.25;16.75;;;;;13.02;66.60;98622.53;5013756;28;46181;-62
2023/04/20 07:17:00;;;;;;;;;19.75;18.75;;;;;13.05;66.67;98618.88;5013392;28;45337;-62
2023/04/20 07:19:26;;;;;;;;;20.25;17.25;;;;;13.07;67.16;98624.91;5012498;28;45379;-62
2023/04/20 07:21:51;;;;;;;;;18.75;18.75;;;;;13.10;68.09;98627.38;5012807;28;45570;-62
2023/04/20 07:24:17;;;;;;;;;19.33;18.33;;;;;13.16;68.60;98621.75;5013221;28;47420;-62
2023/04/20 07:26:42;;;;;;;;;22.33;21.33;;;;;13.16;67.96;98621.75;5013343;28;45362;-62
2023/04/20 07:29:07;;;;;;;;;26.67;23.00;;;;;13.12;68.00;98620.19;5013453;28;45706;-62
2023/04/20 07:31:33;;;;;;;;;19.25;17.25;;;;;13.09;68.15;98623.88;5012944;28;45553;-62
2023/04/20 07:33:58;;;;;;;;;18.75;15.75;;;;;13.10;67.87;98614.97;5013223;28;46454;-62
2023/04/20 07:36:23;;;;;;;;;18.00;16.75;;;;;13.12;67.77;98617.53;5013133;28;45316;-62
2023/04/20 07:38:49;;;;;;;;;17.25;17.25;;;;;13.10;68.61;98617.63;5027939;28;45813;-62
2023/04/20 07:41:14;;;;;;;;;20.00;16.00;;;;;13.11;68.91;98613.19;5013107;28;45419;-63
2023/04/20 07:43:40;;;;;;;;;20.00;19.00;;;;;13.08;68.57;98614.22;5012541;28;46340;-62
2023/04/20 07:46:06;;;;;;;;;20.25;18.50;;;;;13.01;68.78;98609.38;5012756;28;45394;-62
2023/04/20 07:48:39;;;;;;;;;20.00;14.75;;;;;12.97;68.39;98608.72;5012868;28;45449;-62
2023/04/20 07:51:04;;;;;;;;;21.33;20.00;;;;;12.97;68.23;98605.22;5013870;28;45548;-62
2023/04/20 07:53:29;;;;;;;;;21.50;21.00;;;;;12.98;68.23;98606.91;5013005;28;46196;-62
2023/04/20 07:55:55;;;;;;;;;25.75;19.25;;;;;12.96;68.68;98601.72;5010912;28;45525;-62
2023/04/20 07:58:20;;;;;;;;;19.75;18.25;;;;;12.94;68.93;98601.78;5012715;28;45485;-62
2023/04/20 08:00:46;;;;;;;;;18.00;16.00;;;;;12.94;68.98;98599.16;5011936;28;45405;-62
2023/04/20 08:03:12;;;;;;;;;20.75;20.00;;;;;12.93;68.96;98586.00;5012104;28;46370;-62
2023/04/20 08:05:39;;;;;;;;;28.75;23.50;;;;;12.92;69.28;98587.81;5027713;28;45385;-62
2023/04/20 08:08:05;;;;;;;;;18.00;17.50;;;;;12.89;69.30;98573.91;5012641;28;45415;-62
2023/04/20 08:10:30;;;;;;;;;24.00;21.00;;;;;12.84;69.57;98563.59;5012396;28;45387;-62
2023/04/20 08:12:55;;;;;;;;;26.00;24.33;;;;;12.87;69.26;98557.28;5012211;28;45437;-62
2023/04/20 08:15:21;;;;;;;;;11.75;7.75;;;;;12.88;69.23;98554.56;5012590;28;45474;-62
2023/04/20 08:17:46;;;;;;;;;18.75;17.00;;;;;12.91;69.07;98557.00;5012470;28;45373;-62
2023/04/20 08:20:11;;;;;;;;;18.25;14.00;;;;;12.96;68.88;98566.47;5013028;28;45402;-61
2023/04/20 08:22:38;;;;;;;;;14.50;14.50;;;;;13.06;68.95;98583.53;5012167;28;45495;-62
2023/04/20 08:25:04;;;;;;;;;19.75;16.25;;;;;13.14;69.13;98592.69;5012555;28;45594;-62
2023/04/20 08:27:29;;;;;;;;;23.67;21.00;;;;;13.22;69.54;98595.78;5012183;28;45456;-62
2023/04/20 08:29:55;;;;;;;;;19.25;17.25;;;;;13.31;69.23;98594.38;5012516;28;45507;-62
2023/04/20 08:32:22;;;;;;;;;19.25;16.75;;;;;13.38;69.43;98582.50;5011851;28;45515;-62
2023/04/20 08:34:48;;;;;;;;;18.00;16.50;;;;;13.49;69.04;98580.03;5012152;28;45446;-62
2023/04/20 08:37:14;;;;;;;;;23.50;17.50;;;;;13.65;68.79;98579.09;5012828;28;45347;-62
2023/04/20 08:39:39;;;;;;;;;22.75;19.25;;;;;13.81;68.32;98591.31;5012288;28;45487;-61
2023/04/20 08:42:05;;;;;;;;;19.00;16.75;;;;;13.95;68.30;98583.34;5010568;28;46511;-63
2023/04/20 08:44:30;;;;;;;;;22.33;21.33;;;;;14.08;67.60;98588.72;5010486;28;45695;-62
2023/04/20 08:46:56;;;;;;;;;21.25;19.00;;;;;14.11;66.47;98585.91;5002173;28;45342;-63
2023/04/20 08:49:22;;;;;;;;;22.25;21.00;;;;;14.13;66.02;98581.34;5012298;28;45510;-63
2023/04/20 08:51:47;;;;;;;;;21.33;21.00;;;;;14.14;66.47;98580.41;5015162;28;46481;-62
2023/04/20 08:54:13;;;;;;;;;24.67;23.00;;;;;14.15;66.49;98571.50;5015656;28;45392;-63
2023/04/20 08:56:44;;;;;;;;;23.25;22.75;;;;;14.18;66.50;98568.66;5015392;28;45896;-63
2023/04/20 08:59:11;;;;;;;;;21.75;20.50;;;;;14.17;66.71;98566.97;5015214;28;45457;-63
2023/04/20 09:01:38;;;;;;;;;22.00;20.25;;;;;14.18;66.58;98558.06;5014293;28;46425;-63
2023/04/20 09:04:22;;;;;;;;;22.50;20.00;;;;;14.21;66.41;98552.56;5015442;28;45379;-63
2023/04/20 09:06:52;;;;;;;;;26.33;25.67;;;;;14.20;66.65;98548.22;5010412;28;45554;-63
2023/04/20 09:09:19;;;;;;;;;17.00;13.00;;;;;14.21;66.45;98543.75;5007462;28;45686;-63
2023/04/20 09:11:45;;;;;;;;;21.75;21.00;;;;;14.26;66.24;98536.34;5014318;28;45521;-63
2023/04/20 09:14:13;;;;;;;;;25.25;20.25;;;;;14.33;66.59;98527.91;5013912;28;45370;-63
2023/04/20 09:17:00;;;;;;;;;20.25;20.00;;;;;14.46;66.86;98535.09;5013606;28;45819;-63
2023/04/20 09:19:27;;;;;;;;;23.50;22.50;;;;;14.57;66.32;98524.66;5015011;28;45493;-63
2023/04/20 09:21:55;;;;;;;;;22.00;20.00;;;;;14.69;65.91;98533.59;5014814;28;46345;-63
2023/04/20 09:24:22;;;;;;;;;21.50;19.25;;;;;14.84;65.82;98528.13;5014444;28;45346;-63
2023/04/20 09:26:48;;;;;;;;;21.25;19.75;;;;;15.03;65.87;98533.03;5014529;28;45399;-63
2023/04/20 09:29:22;;;;;;;;;22.75;20.25;;;;;15.19;64.89;98535.50;5014493;28;45582;-63
2023/04/20 09:31:49;;;;;;;;;21.00;21.00;;;;;15.38;64.18;98527.13;5014648;28;45439;-63
2023/04/20 09:34:14;;;;;;;;;21.25;19.25;;;;;15.55;64.82;98522.38;5014386;28;45499;-64
2023/04/20 09:36:42;;;;;;;;;20.00;17.75;;;;;15.69;64.34;98521.41;5014483;28;45460;-63
2023/04/20 09:39:12;;;;;;;;;19.25;19.25;;;;;15.78;63.22;98519.91;5014453;28;45448;-63
2023/04/20 09:41:40;;;;;;;;;21.75;19.75;;;;;15.70;62.70;98520.44;5013400;28;45393;-63
2023/04/20 09:44:07;;;;;;;;;19.25;17.00;;;;;15.65;62.34;98522.56;5014321;28;45422;-63
2023/04/20 09:46:34;;;;;;;;;21.00;19.50;;;;;15.68;62.44;98525.03;5012780;28;45454;-63
2023/04/20 09:49:02;;;;;;;;;19.50;19.00;;;;;15.73;61.68;98527.38;5029574;28;45479;-63
2023/04/20 09:51:30;;;;;;;;;19.25;19.25;;;;;15.76;61.47;98530.63;5014067;28;46393;-63
2023/04/20 09:54:00;;;;;;;;;19.75;18.00;;;;;15.77;60.62;98523.50;5013845;28;45500;-63
2023/04/20 09:56:26;;;;;;;;;16.00;15.00;;;;;15.82;60.85;98519.56;5012574;28;45499;-63
2023/04/20 09:58:53;;;;;;;;;19.50;18.25;;;;;15.87;60.65;98505.97;5012745;28;45370;-63
2023/04/20 10:01:21;;;;;;;;;17.00;16.75;;;;;15.81;60.56;98503.72;5014381;28;45821;-63
2023/04/20 10:03:47;;;;;;;;;16.00;15.25;;;;;15.75;60.77;98501.53;5017311;28;45339;-63
2023/04/20 10:06:20;;;;;;;;;12.00;12.00;;;;;15.61;59.79;98494.50;5014410;28;45454;-63
2023/04/20 10:08:46;;;;;;;;;15.75;14.50;;;;;15.43;60.27;98495.75;5014418;28;45380;-63
2023/04/20 10:11:27;;;;;;;;;15.75;15.00;;;;;15.29;60.93;98473.69;5014166;28;46401;-63
2023/04/20 10:13:53;;;;;;;;;10.75;10.75;;;;;15.22;60.54;98480.38;5013331;28;45399;-63
2023/04/20 10:16:20;;;;;;;;;13.50;13.00;;;;;15.14;60.30;98471.25;5014034;28;45373;-63
2023/04/20 10:19:01;;;;;;;;;17.00;16.50;;;;;14.98;60.98;98474.09;5013716;28;45527;-63
2023/04/20 10:21:29;;;;;;;;;19.50;19.00;;;;;14.85;61.65;98491.81;5013330;28;45458;-63
2023/04/20 10:23:55;;;;;;;;;16.25;16.00;;;;;14.70;62.60;98461.00;5013842;28;45382;-63
2023/04/20 10:26:21;;;;;;;;;15.50;12.00;;;;;14.55;63.78;98484.97;5013891;28;45487;-63
2023/04/20 10:28:48;;;;;;;;;15.25;15.00;;;;;14.40;64.29;98475.38;5001030;28;45428;-63
2023/04/20 10:31:15;;;;;;;;;17.75;16.50;;;;;14.25;64.60;98468.34;5013797;28;45375;-63
2023/04/20 10:33:51;;;;;;;;;13.00;12.00;;;;;14.15;65.25;98484.03;5013964;28;45454;-63
2023/04/20 10:36:29;;;;;;;;;15.25;14.25;;;;;14.05;65.06;98482.94;5012231;28;45428;-63
2023/04/20 10:38:56;;;;;;;;;15.00;13.50;;;;;13.94;66.85;98498.66;5013558;28;45425;-63
2023/04/20 10:41:22;;;;;;;;;15.50;13.50;;;;;13.82;68.85;98529.44;5026763;28;46788;-63
2023/04/20 10:43:47;;;;;;;;;13.75;13.75;;;;;13.66;69.50;98506.63;5013110;28;45539;-62
2023/04/20 10:46:23;;;;;;;;;13.50;11.25;;;;;13.47;70.62;98512.22;5013745;28;45499;-62
2023/04/20 10:48:56;;;;;;;;;18.50;18.00;;;;;13.28;72.79;98507.19;5014002;28;45424;-61
2023/04/20 10:51:22;;;;;;;;;24.50;23.50;;;;;13.15;73.34;98506.25;5013871;28;45363;-62
2023/04/20 10:54:04;;;;;;;;;29.00;26.33;;;;;13.07;75.07;98508.47;5029016;28;45430;-62
2023/04/20 10:56:37;;;;;;;;;31.00;26.67;;;;;13.04;76.84;98525.38;5013984;28;45483;-62
2023/04/20 10:59:07;;;;;;;;;30.33;25.67;;;;;13.05;77.23;98521.81;5013445;28;45318;-62
2023/04/20 11:01:32;;;;;;;;;25.00;24.33;;;;;13.04;78.26;98524.53;5013155;28;48138;-62
2023/04/20 11:03:58;;;;;;;;;27.67;25.00;;;;;13.04;78.54;98543.06;5012749;28;45377;-62
2023/04/20 11:06:24;;;;;;;;;27.00;23.67;;;;;12.99;79.23;98522.16;5028604;28;45318;-62
2023/04/20 11:08:50;;;;;;;;;30.33;29.00;;;;;13.01;78.18;98504.41;5013075;28;45369;-62
2023/04/20 11:11:20;;;;;;;;;25.50;25.00;;;;;13.14;77.13;98492.13;5013559;28;45864;-62
2023/04/20 11:13:47;;;;;;;;;18.25;18.25;;;;;13.33;77.02;98496.34;5012223;28;45357;-62
2023/04/20 11:16:14;;;;;;;;;17.00;17.00;;;;;13.52;75.62;98499.56;5028796;28;45459;-62
2023/04/20 11:18:53;;;;;;;;;14.00;10.75;;;;;13.77;74.61;98493.56;5013145;28;45571;-62